Current | Forecast
Updated: 2:33 PM JST on May 01, 2017
Observed at Gifu AB, Japan
Temperature 72°F
Humidity 50%
Dew Point 52°F
Wind North at 4 mph
Pressure 29.89 in (Steady)
Conditions Mostly Cloudy
Visibility 6.2 miles
UV 4 out of 16
Clouds (FEW) : 3000 ft
Scattered Clouds (SCT) : 14000 ft
Mostly Cloudy (BKN) : 25000 ft
Yesterday's Maximum 70°F
Yesterday's Minimum 54°F approx.
Yesterday's Heating Degree Days 3 approx.
Sunrise5:03 AM JST
Sunset6:41 PM JST
Moon Rise9:19 AM JST
Moon Set11:43 PM JST
Moon PhaseMoon Phase
Waxing Crescent
Raw METARSPECI RJNG 010533Z 36003KT 300V110 9999 FEW030 SCT140 BKN250 22/11 Q1012 RMK 1CU030 3AC140 A2990


Monday
. High: 71° F.
Tuesday
. High: 62° F.
Wednesday
. High: 64° F.
Thursday
. High: 69° F.
Friday
. High: 73° F.
Saturday
. High: 66° F.
Sunday
. High: 69° F.
Monday
. High: 71° F.

Units: English | Metric

Find the Weather for any City, State or Zipcode, or Country:

U.S. State List | Severe Weather | Tropical Storms | Ski Conditions
United States | Canada | Central America | South America | Asia | Europe | Australia | Africa | Islands

Weather Underground

© Copyright 2017
The Weather Company, LLC